Time;durP1;ratioP1;P1;durP2;ratioP2;P2;SDS_P1;SDS_P2;PMS_P1;PMS_P2;Temp;Humidity;BMP_temperature;BMP_pressure;BME280_temperature;BME280_humidity;BME280_pressure;Samples;Min_cycle;Max_cycle;Signal;HPM_P1;HPM_P2
2024/02/28 00:00:56;;;;;;;9.27;3.13;;;;;;;-4.45;56.83;101035.22;4988309;28;20041;-71
2024/02/28 00:03:23;;;;;;;7.80;3.90;;;;;;;-3.91;56.80;101114.44;4985268;28;20049;-70
2024/02/28 00:05:51;;;;;;;9.10;4.20;;;;;;;-3.90;56.86;101121.28;4990031;28;20069;-70
2024/02/28 00:08:19;;;;;;;6.55;3.85;;;;;;;-4.46;56.45;101036.00;4974143;28;20136;-71
2024/02/28 00:10:45;;;;;;;8.95;3.90;;;;;;;-4.10;56.29;101092.78;4988624;28;20045;-71
2024/02/28 00:13:11;;;;;;;7.97;3.75;;;;;;;-4.44;56.58;101027.72;4987349;28;20097;-71
2024/02/28 00:15:38;;;;;;;8.55;3.83;;;;;;;-4.45;56.82;101038.66;4974141;28;20042;-70
2024/02/28 00:18:04;;;;;;;9.35;3.70;;;;;;;-4.28;57.05;101055.09;4975423;28;20476;-70
2024/02/28 00:20:31;;;;;;;8.30;3.75;;;;;;;-4.05;56.75;101095.66;4968853;28;20140;-69
2024/02/28 00:22:57;;;;;;;9.70;3.75;;;;;;;-4.00;56.89;101101.97;5008900;28;20067;-68
2024/02/28 00:25:24;;;;;;;9.82;3.50;;;;;;;-4.25;56.97;101052.78;4990654;28;20045;-68
2024/02/28 00:27:50;;;;;;;8.77;3.95;;;;;;;-4.13;56.96;101078.19;5005477;28;20038;-69
2024/02/28 00:30:17;;;;;;;10.05;3.83;;;;;;;-4.43;56.84;101026.06;4990296;28;20508;-68
2024/02/28 00:32:43;;;;;;;8.32;3.88;;;;;;;-4.07;57.02;101089.56;4977444;28;20076;-70
2024/02/28 00:35:09;;;;;;;9.50;4.47;;;;;;;-4.21;56.72;101071.69;5006902;28;20144;-69
2024/02/28 00:37:35;;;;;;;10.48;4.45;;;;;;;-4.10;56.91;101085.16;5003832;28;20191;-68
2024/02/28 00:40:01;;;;;;;9.02;3.40;;;;;;;-4.25;57.28;101051.91;4989978;28;20159;-68
2024/02/28 00:42:30;;;;;;;8.10;3.80;;;;;;;-4.06;57.11;101079.50;4978196;28;20041;-69
2024/02/28 00:44:56;;;;;;;7.18;3.65;;;;;;;-4.20;57.10;101048.03;5005010;28;20050;-69
2024/02/28 00:47:23;;;;;;;7.88;3.33;;;;;;;-4.03;57.15;101074.63;4991982;28;20088;-70
2024/02/28 00:49:49;;;;;;;9.27;4.22;;;;;;;-4.10;57.53;101058.06;5004089;28;20042;-68
2024/02/28 00:52:15;;;;;;;9.50;4.28;;;;;;;-3.86;56.94;101092.75;5007880;28;20566;-69
2024/02/28 00:54:41;;;;;;;8.48;3.78;;;;;;;-3.99;56.89;101069.00;5006382;28;20046;-69
2024/02/28 00:57:07;;;;;;;9.20;3.60;;;;;;;-3.85;57.48;101090.31;5005783;28;20128;-70
2024/02/28 00:59:33;;;;;;;10.35;4.38;;;;;;;-3.73;57.13;101092.81;5004819;28;20068;-68
2024/02/28 01:01:59;;;;;;;7.88;3.85;;;;;;;-3.80;57.34;101094.06;4985525;28;20041;-70
2024/02/28 01:04:26;;;;;;;8.80;3.53;;;;;;;-3.72;57.15;101111.50;4989779;28;20651;-70
2024/02/28 01:06:52;;;;;;;9.05;4.30;;;;;;;-3.73;56.99;101099.56;4993337;28;20042;-68
2024/02/28 01:09:18;;;;;;;9.23;3.90;;;;;;;-3.68;57.39;101104.22;4977830;28;20481;-69
2024/02/28 01:11:44;;;;;;;6.95;3.53;;;;;;;-3.64;57.35;101101.09;5006072;28;20138;-69
2024/02/28 01:14:11;;;;;;;10.25;4.07;;;;;;;-4.11;57.21;101024.91;4990335;28;20715;-69
2024/02/28 01:16:37;;;;;;;6.97;3.78;;;;;;;-3.67;57.29;101084.72;4988307;28;20072;-69
2024/02/28 01:19:03;;;;;;;8.38;3.85;;;;;;;-4.03;57.23;101018.69;4989536;28;20057;-69
2024/02/28 01:21:29;;;;;;;8.73;4.32;;;;;;;-4.08;57.29;101035.28;5004061;28;20049;-68
2024/02/28 01:23:55;;;;;;;7.72;3.50;;;;;;;-3.69;57.12;101086.28;4972102;28;20096;-69
2024/02/28 01:26:25;;;;;;;9.60;4.05;;;;;;;-3.63;57.62;101091.81;4976256;28;20128;-69
2024/02/28 01:28:52;;;;;;;6.57;3.83;;;;;;;-3.79;56.93;101077.13;4990015;28;20041;-73
2024/02/28 01:31:18;;;;;;;7.38;3.78;;;;;;;-4.29;57.12;101006.69;4986858;28;20042;-68
2024/02/28 01:33:44;;;;;;;8.40;4.47;;;;;;;-3.89;57.89;101064.56;5004348;28;20029;-68
2024/02/28 01:36:12;;;;;;;6.75;3.83;;;;;;;-3.73;57.55;101075.00;4992732;28;20073;-69
2024/02/28 01:38:38;;;;;;;7.85;3.85;;;;;;;-4.00;57.23;101039.25;4988998;28;20034;-67
2024/02/28 01:41:05;;;;;;;7.40;3.90;;;;;;;-3.82;57.25;101060.00;4987265;28;20084;-68
2024/02/28 01:43:32;;;;;;;10.77;3.97;;;;;;;-3.89;57.10;101054.38;4979991;28;20460;-69
2024/02/28 01:46:06;;;;;;;7.70;3.47;;;;;;;-3.84;56.95;101068.28;4963672;28;20096;-69
2024/02/28 01:48:32;;;;;;;7.95;3.70;;;;;;;-3.98;57.48;101031.75;4988824;28;20044;-67
2024/02/28 01:50:59;;;;;;;8.73;3.60;;;;;;;-3.89;57.29;101060.34;5003486;28;20034;-69
2024/02/28 01:53:26;;;;;;;8.60;4.13;;;;;;;-3.82;57.55;101075.25;4987470;28;20042;-68
2024/02/28 01:55:52;;;;;;;9.45;3.72;;;;;;;-3.95;57.42;101054.81;4988360;28;20045;-69
2024/02/28 01:58:19;;;;;;;9.73;4.07;;;;;;;-4.30;57.17;101027.81;4986398;28;20046;-68
2024/02/28 02:00:46;;;;;;;7.47;3.60;;;;;;;-4.26;57.55;101020.50;5003308;28;20068;-69
2024/02/28 02:03:12;;;;;;;8.52;3.58;;;;;;;-3.95;57.15;101078.59;4986800;28;20038;-68
2024/02/28 02:05:38;;;;;;;8.20;2.92;;;;;;;-4.05;57.78;101055.84;4985457;28;21713;-68
2024/02/28 02:08:05;;;;;;;8.43;3.55;;;;;;;-4.10;58.13;101036.84;4991786;28;20042;-69
2024/02/28 02:10:31;;;;;;;8.00;3.58;;;;;;;-4.12;57.84;101035.88;5006526;28;20054;-68
2024/02/28 02:13:07;;;;;;;7.43;3.13;;;;;;;-3.89;58.11;101083.22;5004204;28;20049;-68
2024/02/28 02:15:33;;;;;;;8.52;3.38;;;;;;;-4.14;57.64;101029.78;5003984;28;20034;-71
2024/02/28 02:18:00;;;;;;;7.15;3.50;;;;;;;-3.89;57.96;101067.97;4971493;28;20034;-70
2024/02/28 02:20:32;;;;;;;8.85;3.60;;;;;;;-3.85;58.01;101079.22;4973742;28;20040;-70
2024/02/28 02:22:58;;;;;;;7.00;3.58;;;;;;;-4.02;57.87;101063.69;5004365;28;20045;-71
2024/02/28 02:25:24;;;;;;;7.22;3.40;;;;;;;-4.34;57.49;101014.00;5004957;28;20045;-73
2024/02/28 02:27:51;;;;;;;10.23;3.90;;;;;;;-4.02;58.22;101058.59;4990929;28;20388;-71
2024/02/28 02:30:17;;;;;;;7.15;3.40;;;;;;;-4.24;57.64;101018.94;5004896;28;20042;-71
2024/02/28 02:32:43;;;;;;;7.07;3.65;;;;;;;-3.87;58.03;101065.56;4988303;28;20037;-71
2024/02/28 02:35:09;;;;;;;9.05;3.58;;;;;;;-3.83;57.88;101065.88;4974029;28;20385;-72
2024/02/28 02:37:35;;;;;;;7.00;3.47;;;;;;;-4.14;57.81;101027.25;4987238;28;20424;-71
2024/02/28 02:40:02;;;;;;;9.85;3.63;;;;;;;-3.99;58.21;101041.00;4990570;28;20039;-67
2024/02/28 02:42:28;;;;;;;9.07;3.38;;;;;;;-4.05;58.06;101043.13;4973481;28;20038;-70
2024/02/28 02:44:54;;;;;;;7.40;3.30;;;;;;;-4.26;58.35;101000.16;5003985;28;20085;-70
2024/02/28 02:47:19;;;;;;;5.35;3.17;;;;;;;-4.28;57.82;101006.78;4990705;28;20089;-70
2024/02/28 02:49:45;;;;;;;8.10;3.95;;;;;;;-4.42;58.11;100987.16;4984910;28;20152;-71
2024/02/28 02:52:11;;;;;;;7.10;3.28;;;;;;;-4.09;58.00;101047.13;4970870;28;20559;-71
2024/02/28 02:54:38;;;;;;;7.45;3.60;;;;;;;-3.99;57.85;101071.53;4971590;28;20077;-70
2024/02/28 02:57:04;;;;;;;8.75;3.58;;;;;;;-4.14;57.85;101065.38;4978386;28;20034;-71
2024/02/28 02:59:30;;;;;;;10.30;3.72;;;;;;;-4.22;58.42;101030.88;4982691;28;20070;-69
2024/02/28 03:01:56;;;;;;;5.78;2.95;;;;;;;-4.35;58.23;101003.72;4977600;28;20054;-68
2024/02/28 03:04:22;;;;;;;9.25;3.40;;;;;;;-4.78;58.22;100930.44;4999421;28;20180;-67
2024/02/28 03:06:48;;;;;;;7.18;3.35;;;;;;;-4.13;58.36;101039.19;4987204;28;20047;-69
2024/02/28 03:09:15;;;;;;;9.23;3.75;;;;;;;-4.26;58.18;101023.03;4986792;28;20505;-69
2024/02/28 03:11:41;;;;;;;7.82;3.20;;;;;;;-4.63;58.17;100949.31;4980935;28;20080;-69
2024/02/28 03:14:07;;;;;;;9.13;3.30;;;;;;;-4.14;58.65;101037.41;4994701;28;20153;-69
2024/02/28 03:16:37;;;;;;;9.60;3.80;;;;;;;-4.16;58.54;101034.75;4977406;28;20065;-68
2024/02/28 03:19:03;;;;;;;7.20;3.30;;;;;;;-4.51;58.51;100971.25;4976700;28;20049;-69
2024/02/28 03:21:30;;;;;;;8.57;3.80;;;;;;;-4.18;58.42;101033.75;4993815;28;20491;-69
2024/02/28 03:23:58;;;;;;;8.50;3.10;;;;;;;-4.00;58.70;101053.63;4967036;28;20070;-68
2024/02/28 03:26:24;;;;;;;8.68;3.20;;;;;;;-4.46;58.80;100978.44;4977625;28;20603;-67
2024/02/28 03:28:53;;;;;;;6.40;3.00;;;;;;;-4.00;58.25;101059.59;4982671;28;20046;-69
2024/02/28 03:31:19;;;;;;;7.20;3.30;;;;;;;-4.07;58.95;101044.66;4982289;28;20478;-68
2024/02/28 03:33:46;;;;;;;7.65;3.08;;;;;;;-4.22;58.56;101020.72;4977450;28;20076;-69
2024/02/28 03:36:12;;;;;;;7.93;3.35;;;;;;;-4.11;58.85;101046.13;4977693;28;20089;-68
2024/02/28 03:38:38;;;;;;;9.57;3.22;;;;;;;-4.08;58.88;101053.06;4981402;28;20042;-69
2024/02/28 03:41:05;;;;;;;5.25;3.00;;;;;;;-4.06;58.62;101050.66;4974355;28;20100;-68
2024/02/28 03:43:31;;;;;;;7.95;3.40;;;;;;;-4.01;58.74;101046.78;4982544;28;20149;-69
2024/02/28 03:45:57;;;;;;;8.45;3.72;;;;;;;-4.00;58.47;101051.09;4977711;28;20085;-68
2024/02/28 03:48:23;;;;;;;10.75;3.28;;;;;;;-3.99;59.01;101041.00;4978206;28;20042;-69
2024/02/28 03:50:49;;;;;;;7.35;3.20;;;;;;;-4.02;58.64;101033.16;4977903;28;20054;-68
2024/02/28 03:53:15;;;;;;;8.85;2.97;;;;;;;-4.26;58.92;101005.25;4976344;28;20061;-70
2024/02/28 03:55:43;;;;;;;5.55;3.28;;;;;;;-4.00;58.75;101043.47;4977397;28;20484;-69
2024/02/28 03:58:10;;;;;;;7.60;3.28;;;;;;;-4.02;58.74;101034.84;4965980;28;20061;-68
2024/02/28 04:00:36;;;;;;;9.63;3.17;;;;;;;-4.16;59.17;101014.41;4994018;28;20049;-70
2024/02/28 04:03:04;;;;;;;8.00;3.00;;;;;;;-3.93;59.22;101025.28;4978357;28;20085;-68
2024/02/28 04:05:30;;;;;;;5.18;2.72;;;;;;;-4.22;58.99;100988.56;4978695;28;20073;-69
2024/02/28 04:07:59;;;;;;;6.13;2.75;;;;;;;-3.84;58.58;101045.38;4992550;28;20053;-70
2024/02/28 04:10:25;;;;;;;6.88;3.00;;;;;;;-3.86;58.90;101030.03;4978341;28;20048;-69
2024/02/28 04:12:51;;;;;;;5.53;2.88;;;;;;;-3.95;59.13;101009.03;4992433;28;20042;-69
2024/02/28 04:15:18;;;;;;;8.63;2.72;;;;;;;-4.12;58.82;100987.56;4992693;28;20046;-69
2024/02/28 04:17:44;;;;;;;11.85;3.30;;;;;;;-4.10;59.11;100991.94;4980646;28;20126;-70
2024/02/28 04:20:11;;;;;;;6.88;2.55;;;;;;;-3.77;58.67;101039.97;4975639;28;21613;-69
2024/02/28 04:22:38;;;;;;;5.20;2.58;;;;;;;-3.81;58.72;101036.34;4961933;28;20084;-70
2024/02/28 04:25:06;;;;;;;6.93;2.80;;;;;;;-4.20;59.01;100968.31;4992435;28;20070;-68
2024/02/28 04:27:32;;;;;;;7.25;2.25;;;;;;;-3.73;59.19;101039.41;4976672;28;20042;-68
2024/02/28 04:29:58;;;;;;;5.93;2.67;;;;;;;-3.67;58.79;101054.19;4973226;28;20042;-70
2024/02/28 04:32:24;;;;;;;8.48;3.17;;;;;;;-3.85;58.62;101021.63;4993317;28;20046;-68
2024/02/28 04:34:51;;;;;;;4.70;2.75;;;;;;;-3.64;59.07;101044.22;4976498;28;20089;-68
2024/02/28 04:37:17;;;;;;;5.35;2.92;;;;;;;-3.50;59.43;101057.91;4964839;28;20066;-72
2024/02/28 04:39:43;;;;;;;8.18;2.70;;;;;;;-3.80;59.35;100978.69;4976061;28;20081;-67
2024/02/28 04:42:09;;;;;;;7.45;2.70;;;;;;;-2.99;58.89;101052.78;4978198;28;20039;-68
2024/02/28 04:44:35;;;;;;;8.10;2.45;;;;;;;-2.55;59.17;101046.25;4981962;28;20117;-68
2024/02/28 04:47:02;;;;;;;6.78;2.67;;;;;;;-2.17;58.61;101012.06;4980893;28;20106;-70
2024/02/28 04:49:28;;;;;;;6.07;2.88;;;;;;;-1.86;58.09;100991.88;4975782;28;20051;-70
2024/02/28 04:51:54;;;;;;;6.15;2.30;;;;;;;-1.24;58.08;101013.41;4965319;28;20051;-71
2024/02/28 04:54:23;;;;;;;7.03;2.53;;;;;;;-1.21;57.51;100953.94;4982591;28;20042;-72
2024/02/28 04:56:51;;;;;;;10.93;2.80;;;;;;;-0.58;57.29;101005.16;4977188;28;20125;-72
2024/02/28 04:59:17;;;;;;;6.13;2.70;;;;;;;-0.01;56.29;101048.34;4976511;28;20042;-69
2024/02/28 05:01:45;;;;;;;7.22;2.42;;;;;;;0.09;56.51;100988.28;4961427;28;20046;-71
2024/02/28 05:04:11;;;;;;;8.50;2.65;;;;;;;0.85;55.74;101043.38;4964192;28;20073;-70
2024/02/28 05:06:38;;;;;;;4.13;2.30;;;;;;;1.23;55.33;101035.78;4970303;28;20884;-72
2024/02/28 05:09:04;;;;;;;5.40;2.40;;;;;;;1.83;55.31;101025.81;4979936;28;20053;-71
2024/02/28 05:11:30;;;;;;;4.43;2.13;;;;;;;2.31;53.77;101021.97;4969655;28;20034;-72
2024/02/28 05:13:56;;;;;;;6.35;2.47;;;;;;;2.64;53.11;101002.00;4980564;28;20097;-71
2024/02/28 05:16:22;;;;;;;3.58;2.40;;;;;;;3.19;52.31;101042.81;4980319;28;20034;-71
2024/02/28 05:19:04;;;;;;;5.15;2.63;;;;;;;3.23;52.06;100960.66;4981068;28;20042;-70
2024/02/28 05:21:48;;;;;;;6.57;2.25;;;;;;;4.28;51.60;101035.84;4981431;28;20035;-70
2024/02/28 05:24:15;;;;;;;4.30;2.30;;;;;;;4.81;50.82;101017.94;4984582;28;20449;-70
2024/02/28 05:26:41;;;;;;;4.63;2.50;;;;;;;5.07;49.71;100971.50;4982159;28;20133;-69
2024/02/28 05:29:08;;;;;;;5.57;2.38;;;;;;;5.85;48.76;101030.69;4980642;28;20142;-71
2024/02/28 05:31:38;;;;;;;3.55;2.20;;;;;;;6.07;47.53;101002.97;4997200;28;20045;-71
2024/02/28 05:34:04;;;;;;;4.90;2.55;;;;;;;5.51;46.46;100975.44;4979955;28;20519;-71
2024/02/28 05:36:33;;;;;;;5.43;2.25;;;;;;;6.30;46.64;101022.56;5000146;28;20034;-71
2024/02/28 05:39:01;;;;;;;6.03;2.72;;;;;;;6.82;46.29;101017.06;4982315;28;20106;-71
2024/02/28 05:41:33;;;;;;;6.78;2.50;;;;;;;7.05;44.92;100989.19;4985144;28;20113;-71
2024/02/28 05:43:59;;;;;;;5.43;2.67;;;;;;;7.09;44.87;100965.09;4980322;28;20054;-72
2024/02/28 05:46:25;;;;;;;6.90;2.78;;;;;;;7.61;44.34;100954.19;4980435;28;20089;-71
2024/02/28 05:48:51;;;;;;;8.63;2.70;;;;;;;8.53;42.86;101015.69;4979289;28;20054;-74
2024/02/28 05:51:17;;;;;;;5.28;2.75;;;;;;;8.97;42.38;101018.19;4961983;28;20104;-72
2024/02/28 05:53:44;;;;;;;5.45;2.55;;;;;;;8.93;41.22;101003.44;4969638;28;20074;-71
2024/02/28 05:56:19;;;;;;;6.53;2.97;;;;;;;9.29;40.67;100967.63;4984375;28;20039;-70
2024/02/28 05:58:47;;;;;;;5.45;2.70;;;;;;;10.16;40.57;100986.97;4985916;28;20050;-75
2024/02/28 06:01:18;;;;;;;5.13;2.95;;;;;;;10.39;39.28;100984.69;4986267;28;20074;-74
2024/02/28 06:03:51;;;;;;;5.60;3.03;;;;;;;10.63;38.98;100968.44;4985112;28;20508;-71
2024/02/28 06:06:18;;;;;;;7.10;3.28;;;;;;;11.48;38.86;100968.22;4994584;28;20677;-71
2024/02/28 06:08:45;;;;;;;8.20;3.30;;;;;;;12.24;37.99;100978.16;4975563;28;20086;-71
2024/02/28 06:11:11;;;;;;;7.13;3.10;;;;;;;12.95;37.40;100976.50;4978000;28;20046;-70
2024/02/28 06:13:40;;;;;;;7.03;3.05;;;;;;;13.41;35.51;101000.91;4978782;28;20046;-71
2024/02/28 06:16:06;;;;;;;9.13;3.33;;;;;;;13.28;35.49;100979.09;4977483;28;20503;-71
2024/02/28 06:18:33;;;;;;;9.65;3.70;;;;;;;14.00;35.54;100990.31;4983136;28;20035;-72
2024/02/28 06:21:02;;;;;;;7.75;3.92;;;;;;;15.33;34.71;101002.53;4968481;28;20585;-71
2024/02/28 06:23:28;;;;;;;7.25;3.78;;;;;;;16.00;33.58;101000.97;4984223;28;20034;-70
2024/02/28 06:25:57;;;;;;;6.03;3.17;;;;;;;16.52;32.48;100955.59;4994928;28;20054;-71
2024/02/28 06:28:23;;;;;;;6.93;3.78;;;;;;;17.22;31.19;100958.88;4967298;28;20035;-71
2024/02/28 06:30:49;;;;;;;6.03;3.38;;;;;;;17.10;30.27;100979.22;4977335;28;20043;-68
2024/02/28 06:33:16;;;;;;;9.43;3.90;;;;;;;16.81;30.63;101005.97;4974952;28;20489;-67
2024/02/28 06:35:42;;;;;;;7.43;3.83;;;;;;;17.14;29.87;100973.03;4983600;28;20077;-68
2024/02/28 06:38:08;;;;;;;6.40;3.28;;;;;;;16.37;29.82;100998.72;4974036;28;20124;-70
2024/02/28 06:40:34;;;;;;;7.60;3.67;;;;;;;15.46;30.18;100998.00;4978831;28;20039;-71
2024/02/28 06:43:01;;;;;;;6.65;3.65;;;;;;;14.60;30.47;100995.19;4967276;28;20532;-66
2024/02/28 06:45:28;;;;;;;6.47;3.70;;;;;;;14.93;30.91;100983.66;4978595;28;20050;-67
2024/02/28 06:47:54;;;;;;;6.40;3.90;;;;;;;16.05;30.62;100996.53;4980271;28;20409;-69
2024/02/28 06:50:20;;;;;;;7.35;3.58;;;;;;;16.49;29.76;101000.31;4979253;28;20086;-67
2024/02/28 06:52:46;;;;;;;8.85;4.03;;;;;;;16.19;29.30;100998.97;4993872;28;20042;-66
2024/02/28 06:55:14;;;;;;;6.70;3.50;;;;;;;16.04;29.10;100998.28;4994836;28;20050;-66
2024/02/28 06:57:42;;;;;;;9.18;3.80;;;;;;;16.85;28.76;100998.03;4994571;28;20046;-67
2024/02/28 07:00:11;;;;;;;7.38;3.67;;;;;;;17.61;28.48;100970.44;4983103;28;20094;-68
2024/02/28 07:02:37;;;;;;;7.90;3.22;;;;;;;18.78;27.53;100965.28;4997223;28;20038;-71
2024/02/28 07:05:04;;;;;;;5.72;3.50;;;;;;;19.73;27.77;100968.97;4988996;28;20408;-68
2024/02/28 07:07:31;;;;;;;5.22;3.28;;;;;;;20.66;26.88;100983.84;4986802;28;20042;-68
2024/02/28 07:09:58;;;;;;;10.13;3.67;;;;;;;21.27;26.34;100990.66;4998710;28;20048;-67
2024/02/28 07:12:24;;;;;;;6.47;3.42;;;;;;;22.03;26.17;100961.44;4986792;28;20034;-67
2024/02/28 07:14:51;;;;;;;7.45;3.67;;;;;;;22.53;25.18;100994.88;4997054;28;20156;-67
2024/02/28 07:17:17;;;;;;;7.40;4.13;;;;;;;22.46;24.39;100983.66;4983053;28;20456;-66
2024/02/28 07:19:43;;;;;;;6.35;4.10;;;;;;;22.87;24.42;100988.22;4993179;28;20133;-66
2024/02/28 07:22:10;;;;;;;5.75;4.00;;;;;;;23.24;24.19;100993.78;4974937;28;20046;-68
2024/02/28 07:24:36;;;;;;;7.32;4.05;;;;;;;23.27;23.77;100983.88;4974736;28;20042;-66
2024/02/28 07:27:03;;;;;;;8.10;4.03;;;;;;;23.06;22.96;100985.63;4974487;28;20052;-66
2024/02/28 07:29:29;;;;;;;6.90;4.47;;;;;;;23.59;23.47;101009.94;4976903;28;20121;-68
2024/02/28 07:31:55;;;;;;;7.95;4.30;;;;;;;24.11;23.23;100982.81;4973737;28;20548;-67
2024/02/28 07:34:21;;;;;;;7.68;4.38;;;;;;;24.29;22.87;100988.19;4974718;28;20223;-67
2024/02/28 07:36:47;;;;;;;7.85;4.68;;;;;;;23.99;22.68;100978.09;4981255;28;20520;-66
2024/02/28 07:39:13;;;;;;;7.47;4.10;;;;;;;23.92;22.65;100986.31;4982378;28;20042;-67
2024/02/28 07:41:41;;;;;;;8.18;4.68;;;;;;;25.20;22.99;100994.38;4972184;28;20049;-67
2024/02/28 07:44:08;;;;;;;6.80;4.40;;;;;;;24.77;21.32;100992.09;4978488;28;20096;-66
2024/02/28 07:46:35;;;;;;;7.45;4.50;;;;;;;22.44;21.91;100988.16;4994422;28;20038;-67
2024/02/28 07:49:01;;;;;;;7.47;4.25;;;;;;;21.93;22.98;100998.03;4979133;28;20042;-68
2024/02/28 07:51:28;;;;;;;6.70;4.45;;;;;;;22.68;23.00;100994.28;4976884;28;20097;-66
2024/02/28 07:53:55;;;;;;;8.07;4.65;;;;;;;23.13;22.83;100952.59;4996040;28;20527;-68
2024/02/28 07:56:21;;;;;;;7.05;4.47;;;;;;;23.94;22.19;100991.56;4968595;28;20038;-66
2024/02/28 07:58:47;;;;;;;7.15;4.20;;;;;;;25.14;22.94;100986.72;4980215;28;20091;-66
2024/02/28 08:01:16;;;;;;;6.60;4.10;;;;;;;25.76;22.34;100987.97;4985433;28;20035;-67
2024/02/28 08:03:43;;;;;;;10.35;4.35;;;;;;;26.46;21.38;100983.22;4980965;28;20046;-69
2024/02/28 08:09:28;;;;;;;6.72;4.57;;;;;;;26.59;20.94;100971.84;4982780;28;20055;-66
2024/02/28 08:11:54;;;;;;;5.05;4.40;;;;;;;27.06;20.56;100968.19;4984031;28;20048;-67
2024/02/28 08:14:21;;;;;;;7.28;4.63;;;;;;;26.55;19.74;100964.97;4977536;28;20502;-66
2024/02/28 08:16:47;;;;;;;8.18;4.88;;;;;;;26.14;20.33;100982.38;4985474;28;20049;-67
2024/02/28 08:19:13;;;;;;;11.00;4.78;;;;;;;25.81;20.87;100970.78;4998622;28;20180;-66
2024/02/28 08:21:39;;;;;;;6.78;4.75;;;;;;;25.84;20.56;100973.28;4983641;28;20042;-66
2024/02/28 08:24:06;;;;;;;10.25;4.72;;;;;;;25.45;20.45;100968.28;4983314;28;20682;-68
2024/02/28 08:26:32;;;;;;;6.88;4.63;;;;;;;25.72;20.85;100984.59;4999487;28;20118;-67
2024/02/28 08:28:58;;;;;;;11.68;4.93;;;;;;;25.48;20.98;100978.78;4977420;28;20104;-67
2024/02/28 08:31:24;;;;;;;7.57;4.85;;;;;;;25.79;20.42;100978.00;4982433;28;20041;-70
2024/02/28 08:33:50;;;;;;;5.85;4.57;;;;;;;26.17;20.72;100985.72;4969346;28;20574;-72
2024/02/28 08:36:16;;;;;;;8.18;4.93;;;;;;;26.99;19.94;100996.25;4985511;28;20041;-70
2024/02/28 08:38:46;;;;;;;10.13;5.05;;;;;;;26.77;19.61;100957.44;4982443;28;20049;-72
2024/02/28 08:41:12;;;;;;;7.75;4.53;;;;;;;26.83;20.41;100966.03;4971678;28;20048;-73
2024/02/28 08:43:41;;;;;;;9.18;5.05;;;;;;;26.31;19.78;100973.44;4984664;28;20045;-71
2024/02/28 08:46:07;;;;;;;9.35;5.15;;;;;;;25.83;19.83;100976.91;4984715;28;20742;-72
2024/02/28 08:48:33;;;;;;;9.85;5.20;;;;;;;26.34;19.96;100959.03;5000359;28;20038;-72
2024/02/28 08:51:03;;;;;;;7.10;4.75;;;;;;;25.74;19.59;100932.06;5003074;28;20415;-70
2024/02/28 08:53:29;;;;;;;8.82;4.95;;;;;;;25.27;19.97;100968.28;4970670;28;20050;-78
2024/02/28 08:55:55;;;;;;;9.02;5.35;;;;;;;24.50;20.29;100943.75;5005383;28;20037;-71
2024/02/28 08:58:21;;;;;;;8.52;4.88;;;;;;;24.08;20.15;100934.25;5001879;28;20089;-71
2024/02/28 09:00:49;;;;;;;7.47;5.32;;;;;;;24.26;20.33;100969.75;4977790;28;20038;-71
2024/02/28 09:03:15;;;;;;;8.18;5.15;;;;;;;24.12;20.83;100934.03;4967760;28;20041;-72
2024/02/28 09:05:41;;;;;;;8.30;5.28;;;;;;;25.12;20.69;100964.63;4985201;28;20042;-74
2024/02/28 09:08:07;;;;;;;9.07;5.63;;;;;;;25.76;20.43;100943.50;4984738;28;21528;-70
2024/02/28 09:10:34;;;;;;;8.65;5.50;;;;;;;25.44;20.32;100911.50;5002598;28;20409;-73
2024/02/28 09:13:01;;;;;;;8.18;5.47;;;;;;;25.32;20.37;100941.41;4983012;28;20037;-71
2024/02/28 09:15:27;;;;;;;8.48;5.43;;;;;;;25.33;19.88;100946.69;5003553;28;20049;-70
2024/02/28 09:17:53;;;;;;;9.07;5.13;;;;;;;25.54;20.41;100941.19;4986977;28;20698;-71
2024/02/28 09:20:22;;;;;;;8.50;5.30;;;;;;;25.67;19.96;100931.56;5004191;28;20042;-69
2024/02/28 09:22:48;;;;;;;8.80;5.70;;;;;;;25.15;19.33;100927.19;4988007;28;20049;-72
2024/02/28 09:25:15;;;;;;;14.45;5.40;;;;;;;24.55;20.04;100911.59;4991035;28;20042;-86
2024/02/28 09:27:42;;;;;;;12.98;5.95;;;;;;;25.75;20.38;100941.78;4992240;28;20073;-72
2024/02/28 09:30:08;;;;;;;8.80;5.65;;;;;;;26.57;19.79;100923.03;5003675;28;20046;-70
2024/02/28 09:32:34;;;;;;;8.40;5.68;;;;;;;26.30;19.84;100942.38;4986296;28;20037;-74
2024/02/28 09:35:00;;;;;;;9.85;5.72;;;;;;;26.77;19.81;100933.41;4972408;28;20057;-74
2024/02/28 09:37:29;;;;;;;10.32;5.55;;;;;;;27.34;20.19;100930.94;4983301;28;20686;-70
2024/02/28 09:39:55;;;;;;;11.43;6.07;;;;;;;27.30;20.04;100926.75;4987436;28;20097;-75
2024/02/28 09:42:21;;;;;;;11.30;5.75;;;;;;;27.88;19.93;100924.91;4985168;28;20050;-71
2024/02/28 09:44:47;;;;;;;8.82;5.43;;;;;;;28.50;19.45;100928.06;4988286;28;20405;-72
2024/02/28 09:47:13;;;;;;;8.77;5.95;;;;;;;27.97;18.88;100923.47;5001406;28;20042;-76
2024/02/28 09:49:42;;;;;;;10.50;5.68;;;;;;;27.34;18.83;100922.94;5001812;28;20042;-75
2024/02/28 09:52:08;;;;;;;9.75;5.90;;;;;;;25.97;19.31;100925.50;4987166;28;21048;-77
2024/02/28 09:54:34;;;;;;;13.00;5.93;;;;;;;24.76;19.72;100891.91;5002983;28;20053;-76
2024/02/28 09:57:00;;;;;;;7.72;5.60;;;;;;;23.92;19.89;100942.94;5001298;28;20038;-78
2024/02/28 09:59:27;;;;;;;10.43;5.78;;;;;;;22.59;20.31;100869.97;4987342;28;20041;-76
2024/02/28 10:01:57;;;;;;;9.43;5.53;;;;;;;22.93;21.23;100931.34;4987709;28;20042;-75
2024/02/28 10:04:26;;;;;;;10.30;5.80;;;;;;;22.80;20.97;100902.72;4979522;28;20046;-84
2024/02/28 10:06:52;;;;;;;9.32;5.40;;;;;;;23.26;21.41;100931.72;4992938;28;20068;-81
2024/02/28 10:09:18;;;;;;;10.50;5.90;;;;;;;22.94;21.12;100930.44;4999765;28;20105;-83
2024/02/28 10:11:46;;;;;;;9.43;5.82;;;;;;;22.27;21.43;100923.38;4993726;28;20128;-75
2024/02/28 10:14:17;;;;;;;11.15;6.28;;;;;;;21.14;21.22;100918.75;4986999;28;20068;-75
2024/02/28 10:16:44;;;;;;;10.27;6.38;;;;;;;20.69;21.81;100939.63;4991745;28;20124;-78
2024/02/28 10:19:11;;;;;;;8.82;5.57;;;;;;;19.64;22.64;100932.25;5007293;28;20045;-76
2024/02/28 10:21:37;;;;;;;10.32;5.57;;;;;;;18.23;23.25;100931.41;4984972;28;20567;-75
2024/02/28 10:24:05;;;;;;;11.57;6.05;;;;;;;16.82;24.17;100947.25;4987649;28;20049;-80
2024/02/28 10:26:35;;;;;;;10.30;5.95;;;;;;;15.66;25.03;100928.75;5003645;28;20095;-78
2024/02/28 10:29:03;;;;;;;11.98;5.68;;;;;;;14.46;25.84;100918.47;4992583;28;20965;-79
2024/02/28 10:31:32;;;;;;;10.55;5.82;;;;;;;13.74;26.73;100953.75;4994614;28;20065;-79
2024/02/28 10:34:01;;;;;;;8.85;5.47;;;;;;;13.01;27.54;100915.56;4982239;28;20041;-73
2024/02/28 10:36:31;;;;;;;9.50;5.13;;;;;;;12.61;28.32;100939.06;4992274;28;20046;-77
2024/02/28 10:39:00;;;;;;;12.65;5.50;;;;;;;12.17;29.16;100938.13;5004048;28;20045;-75
2024/02/28 10:41:28;;;;;;;9.52;5.32;;;;;;;11.65;29.45;100944.84;4987639;28;20042;-77
2024/02/28 10:43:55;;;;;;;11.68;5.93;;;;;;;11.11;30.21;100914.16;5004113;28;20069;-79
2024/02/28 10:46:21;;;;;;;11.25;5.18;;;;;;;11.05;30.21;100949.69;5009862;28;20038;-79
2024/02/28 10:48:52;;;;;;;8.38;5.40;;;;;;;10.81;30.97;100939.09;4992511;28;20037;-75
2024/02/28 10:51:25;;;;;;;10.32;5.30;;;;;;;10.50;31.11;100933.59;4977963;28;20160;-82
2024/02/28 10:54:12;;;;;;;8.32;4.90;;;;;;;10.23;32.16;100941.97;5002517;28;20068;-80
2024/02/28 10:56:39;;;;;;;10.98;4.85;;;;;;;9.92;32.89;100939.91;5004145;28;20057;-75
2024/02/28 10:59:08;;;;;;;8.48;5.13;;;;;;;9.47;32.99;100939.34;5004552;28;20038;-76
2024/02/28 11:01:38;;;;;;;13.00;5.63;;;;;;;9.13;33.39;100938.84;5002634;28;20038;-73
2024/02/28 11:04:05;;;;;;;10.85;5.55;;;;;;;9.00;34.12;100926.53;5002865;28;20080;-75
2024/02/28 11:06:31;;;;;;;9.60;5.68;;;;;;;9.01;33.93;100955.09;4987643;28;20056;-75
2024/02/28 11:09:00;;;;;;;11.10;5.22;;;;;;;8.73;34.76;100915.72;5002548;28;20045;-76
2024/02/28 11:11:33;;;;;;;11.45;5.25;;;;;;;8.76;34.94;100934.78;4984777;28;20085;-75
2024/02/28 11:14:02;;;;;;;12.55;5.55;;;;;;;8.87;35.29;100935.84;5003974;28;20042;-72
2024/02/28 11:16:30;;;;;;;10.40;4.95;;;;;;;8.80;35.53;100939.19;5000967;28;20086;-74
2024/02/28 11:18:57;;;;;;;9.43;4.85;;;;;;;8.56;35.65;100919.75;4987419;28;20913;-77
2024/02/28 11:21:27;;;;;;;9.07;5.03;;;;;;;8.65;35.75;100937.19;5001538;28;20034;-79
2024/02/28 11:24:03;;;;;;;10.82;4.97;;;;;;;8.66;36.46;100934.63;4976614;28;20057;-71
2024/02/28 11:26:30;;;;;;;10.35;5.68;;;;;;;8.71;36.13;100938.19;4999854;28;20038;-74